createdAt,value
2023-03-16T00:01:15.610Z,100410.34
2023-03-16T00:04:17.595Z,100417.44
2023-03-16T00:07:19.591Z,100426.72
2023-03-16T00:10:27.447Z,100422.66
2023-03-16T00:13:29.933Z,100425.28
2023-03-16T00:16:32.126Z,100433.13
2023-03-16T00:19:35.317Z,100425.31
2023-03-16T00:22:37.214Z,100442.28
2023-03-16T00:25:39.193Z,100434.69
2023-03-16T00:28:42.714Z,100427.41
2023-03-16T00:31:44.958Z,100443.31
2023-03-16T00:34:47.131Z,100448.34
2023-03-16T00:37:49.023Z,100443.72
2023-03-16T00:40:51.433Z,100447.41
2023-03-16T00:43:53.861Z,100453.28
2023-03-16T00:46:56.089Z,100439.56
2023-03-16T00:49:58.272Z,100456.16
2023-03-16T00:53:00.211Z,100455.38
2023-03-16T00:56:05.419Z,100438.81
2023-03-16T00:59:08.930Z,100466.22
2023-03-16T01:02:11.222Z,100470.38
2023-03-16T01:05:13.373Z,100465.59
2023-03-16T01:08:15.379Z,100470.97
2023-03-16T01:11:18.556Z,100458.78
2023-03-16T01:14:20.816Z,100460.56
2023-03-16T01:17:22.834Z,100461.91
2023-03-16T01:20:24.890Z,100463.59
2023-03-16T01:23:26.809Z,100472.00
2023-03-16T01:26:29.189Z,100474.63
2023-03-16T01:29:31.571Z,100465.78
2023-03-16T01:32:34.268Z,100470.66
2023-03-16T01:35:36.398Z,100460.25
2023-03-16T01:38:38.358Z,100473.88
2023-03-16T01:41:41.870Z,100468.25
2023-03-16T01:45:13.273Z,100466.28
2023-03-16T01:48:15.136Z,100475.66
2023-03-16T01:51:26.164Z,100459.25
2023-03-16T01:54:47.190Z,100473.44
2023-03-16T01:57:49.000Z,100483.44
2023-03-16T02:00:50.965Z,100494.22
2023-03-16T02:03:55.593Z,100492.00
2023-03-16T02:06:58.080Z,100494.72
2023-03-16T02:10:02.692Z,100485.41
2023-03-16T02:13:04.604Z,100509.25
2023-03-16T02:16:06.756Z,100502.94
2023-03-16T02:19:09.704Z,100501.19
2023-03-16T02:22:11.536Z,100507.87
2023-03-16T02:25:14.228Z,100518.66
2023-03-16T02:28:16.055Z,100515.72
2023-03-16T02:31:18.242Z,100526.69
2023-03-16T02:34:20.196Z,100529.75
2023-03-16T02:37:22.321Z,100525.56
2023-03-16T02:40:24.195Z,100528.25
2023-03-16T02:43:27.904Z,100523.47
2023-03-16T02:46:29.930Z,100538.91
2023-03-16T02:49:36.760Z,100549.19
2023-03-16T02:52:39.098Z,100553.97
2023-03-16T02:55:41.197Z,100559.31
2023-03-16T02:58:43.069Z,100558.34
2023-03-16T03:01:44.887Z,100557.28
2023-03-16T03:04:46.732Z,100541.75
2023-03-16T03:07:48.573Z,100568.78
2023-03-16T03:10:50.648Z,100565.72
2023-03-16T03:13:52.564Z,100557.78
2023-03-16T03:16:54.668Z,100581.50
2023-03-16T03:19:57.817Z,100585.59
2023-03-16T03:22:59.761Z,100575.84
2023-03-16T03:26:03.052Z,100593.28
2023-03-16T03:29:05.200Z,100602.59
2023-03-16T03:32:07.549Z,100595.22
2023-03-16T03:35:12.524Z,100599.00
2023-03-16T03:38:14.544Z,100604.09
2023-03-16T03:41:16.521Z,100605.09
2023-03-16T03:44:18.535Z,100597.34
2023-03-16T03:47:20.704Z,100619.87
2023-03-16T03:50:22.764Z,100607.78
2023-03-16T03:53:24.734Z,100609.59
2023-03-16T03:56:26.729Z,100623.37
2023-03-16T03:59:28.687Z,100621.38
2023-03-16T04:02:30.686Z,100620.66
2023-03-16T04:05:32.557Z,100627.28
2023-03-16T04:08:34.873Z,100627.00
2023-03-16T04:11:36.823Z,100610.50
2023-03-16T04:14:38.724Z,100639.09
2023-03-16T04:17:40.618Z,100633.66
2023-03-16T04:20:42.572Z,100640.66
2023-03-16T04:23:44.542Z,100646.22
2023-03-16T04:26:46.520Z,100647.31
2023-03-16T04:29:48.379Z,100627.37
2023-03-16T04:32:51.154Z,100653.16
2023-03-16T04:35:53.064Z,100658.47
2023-03-16T04:38:55.093Z,100654.97
2023-03-16T04:41:57.002Z,100657.91
2023-03-16T04:44:59.056Z,100653.06
2023-03-16T04:48:00.888Z,100654.66
2023-03-16T04:51:03.902Z,100666.59
2023-03-16T04:54:06.116Z,100667.13
2023-03-16T04:57:08.475Z,100670.09
2023-03-16T05:00:19.180Z,100681.53
2023-03-16T05:03:21.821Z,100688.47
2023-03-16T05:06:24.189Z,100685.94
2023-03-16T05:09:26.033Z,100692.72
2023-03-16T05:12:27.960Z,100692.81
2023-03-16T05:15:29.844Z,100700.38
2023-03-16T05:18:33.282Z,100691.88
2023-03-16T05:21:37.696Z,100699.91
2023-03-16T05:24:39.544Z,100703.09
2023-03-16T05:27:48.802Z,100706.00
2023-03-16T05:30:51.942Z,100693.84
2023-03-16T05:33:57.582Z,100700.44
2023-03-16T05:36:59.571Z,100720.06
2023-03-16T05:40:01.624Z,100706.66
2023-03-16T05:43:04.467Z,100697.84
2023-03-16T05:46:06.429Z,100714.00
2023-03-16T05:49:08.341Z,100716.69
2023-03-16T05:52:10.466Z,100716.59
2023-03-16T05:55:13.016Z,100715.69
2023-03-16T05:58:14.907Z,100706.81
2023-03-16T06:01:17.038Z,100712.13
2023-03-16T06:04:18.882Z,100722.06
2023-03-16T06:07:21.135Z,100720.88
2023-03-16T06:10:23.090Z,100731.16
2023-03-16T06:13:24.972Z,100724.84
2023-03-16T06:16:27.180Z,100734.41
2023-03-16T06:19:29.068Z,100737.19
2023-03-16T06:22:31.015Z,100729.31
2023-03-16T06:25:32.873Z,100736.31
2023-03-16T06:28:34.784Z,100734.19
2023-03-16T06:31:36.826Z,100757.69
2023-03-16T06:34:38.851Z,100746.44
2023-03-16T06:37:41.177Z,100760.50
2023-03-16T06:40:43.127Z,100760.03
2023-03-16T06:43:45.151Z,100760.22
2023-03-16T06:46:47.186Z,100774.66
2023-03-16T06:49:51.228Z,100766.41
2023-03-16T06:52:53.238Z,100776.13
2023-03-16T06:55:55.120Z,100787.56
2023-03-16T06:58:57.236Z,100785.25
2023-03-16T07:01:59.289Z,100776.47
2023-03-16T07:05:01.946Z,100798.81
2023-03-16T07:08:05.193Z,100801.97
2023-03-16T07:11:07.213Z,100791.34
2023-03-16T07:14:09.300Z,100806.87
2023-03-16T07:17:11.453Z,100806.69
2023-03-16T07:20:13.565Z,100816.59
2023-03-16T07:23:15.611Z,100819.09
2023-03-16T07:26:17.849Z,100823.87
2023-03-16T07:29:19.751Z,100815.44
2023-03-16T07:32:22.450Z,100831.09
2023-03-16T07:35:24.470Z,100813.59
2023-03-16T07:38:26.418Z,100834.88
2023-03-16T07:41:28.313Z,100830.25
2023-03-16T07:44:32.689Z,100831.81
2023-03-16T07:47:34.636Z,100828.38
2023-03-16T07:50:36.493Z,100822.97
2023-03-16T07:53:38.985Z,100841.50
2023-03-16T07:56:48.969Z,100832.16
2023-03-16T07:59:51.894Z,100824.34
2023-03-16T08:02:55.242Z,100838.06
2023-03-16T08:05:57.369Z,100850.47
2023-03-16T08:09:00.211Z,100844.59
2023-03-16T08:12:05.368Z,100840.25
2023-03-16T08:15:09.946Z,100841.91
2023-03-16T08:18:12.611Z,100853.87
2023-03-16T08:21:14.548Z,100860.75
2023-03-16T08:24:16.615Z,100876.19
2023-03-16T08:27:19.865Z,100870.47
2023-03-16T08:30:22.800Z,100875.50
2023-03-16T08:33:26.015Z,100876.12
2023-03-16T08:36:31.681Z,100866.72
2023-03-16T08:39:33.693Z,100874.03
2023-03-16T08:42:35.620Z,100882.81
2023-03-16T08:45:37.767Z,100859.16
2023-03-16T08:48:41.720Z,100867.03
2023-03-16T08:51:44.957Z,100873.25
2023-03-16T08:55:01.411Z,100869.94
2023-03-16T08:58:04.662Z,100868.56
2023-03-16T09:01:06.802Z,100878.50
2023-03-16T09:04:08.903Z,100881.34
2023-03-16T09:07:11.508Z,100878.09
2023-03-16T09:10:16.287Z,100886.09
2023-03-16T09:13:19.366Z,100886.72
2023-03-16T09:16:25.804Z,100894.87
2023-03-16T09:19:32.523Z,100896.06
2023-03-16T09:22:40.441Z,100901.59
2023-03-16T09:25:42.387Z,100901.31
2023-03-16T09:28:44.407Z,100902.41
2023-03-16T09:31:47.479Z,100877.50
2023-03-16T09:34:49.513Z,100894.19
2023-03-16T09:38:05.093Z,100898.06
2023-03-16T09:41:09.535Z,100888.16
2023-03-16T09:44:24.992Z,100891.13
2023-03-16T09:47:28.755Z,100870.69
2023-03-16T09:50:47.821Z,100870.19
2023-03-16T09:53:52.301Z,100873.16
2023-03-16T09:56:55.048Z,100878.72
2023-03-16T09:59:59.030Z,100865.47
2023-03-16T10:03:04.043Z,100866.94
2023-03-16T10:06:06.885Z,100887.25
2023-03-16T10:09:28.587Z,100889.62
2023-03-16T10:12:32.233Z,100886.06
2023-03-16T10:15:37.412Z,100886.38
2023-03-16T10:18:41.744Z,100878.44
2023-03-16T10:21:43.843Z,100881.84
2023-03-16T10:25:06.848Z,100884.91
2023-03-16T10:28:11.193Z,100891.31
2023-03-16T10:31:14.091Z,100896.97
2023-03-16T10:34:16.271Z,100885.97
2023-03-16T10:37:18.262Z,100879.62
2023-03-16T10:40:20.422Z,100875.53
2023-03-16T10:43:22.916Z,100891.25
2023-03-16T10:46:26.354Z,100888.44
2023-03-16T10:49:39.604Z,100868.66
2023-03-16T10:52:43.506Z,100880.87
2023-03-16T10:55:46.802Z,100893.84
2023-03-16T10:58:49.249Z,100892.03
2023-03-16T11:01:51.246Z,100881.97
2023-03-16T11:04:57.123Z,100857.44
2023-03-16T11:08:12.334Z,100863.91
2023-03-16T11:11:18.856Z,100877.97
2023-03-16T11:14:23.199Z,100858.25
2023-03-16T11:17:33.230Z,100857.59
2023-03-16T11:20:35.059Z,100861.94
2023-03-16T11:23:37.941Z,100868.66
2023-03-16T11:26:41.229Z,100869.72
2023-03-16T11:29:52.843Z,100860.84
2023-03-16T11:32:55.967Z,100874.06
2023-03-16T11:36:03.673Z,100854.00
2023-03-16T11:39:08.272Z,100864.28
2023-03-16T11:42:20.890Z,100845.88
2023-03-16T11:45:31.119Z,100866.25
2023-03-16T11:48:37.006Z,100851.97
2023-03-16T11:51:41.099Z,100851.88
2023-03-16T11:54:49.945Z,100853.66
2023-03-16T11:58:02.825Z,100847.34
2023-03-16T12:01:29.724Z,100857.56
2023-03-16T12:04:48.648Z,100850.25
2023-03-16T12:07:50.822Z,100839.03
2023-03-16T12:11:15.578Z,100833.50
2023-03-16T12:14:20.468Z,100832.44
2023-03-16T12:17:26.344Z,100833.00
2023-03-16T12:20:31.805Z,100833.50
2023-03-16T12:23:36.110Z,100819.69
2023-03-16T12:26:44.310Z,100827.37
2023-03-16T12:29:47.133Z,100834.34
2023-03-16T12:32:55.660Z,100831.75
2023-03-16T12:36:04.929Z,100833.59
2023-03-16T12:39:18.737Z,100834.06
2023-03-16T12:42:26.781Z,100832.53
2023-03-16T12:45:32.407Z,100803.25
2023-03-16T12:48:38.902Z,100804.69
2023-03-16T12:51:42.476Z,100817.78
2023-03-16T12:55:06.303Z,100802.97
2023-03-16T12:58:08.697Z,100818.56
2023-03-16T13:01:11.544Z,100820.81
2023-03-16T13:04:13.607Z,100814.78
2023-03-16T13:07:25.838Z,100820.59
2023-03-16T13:10:28.897Z,100828.84
2023-03-16T13:13:31.266Z,100815.63
2023-03-16T13:16:33.831Z,100822.34
2023-03-16T13:19:38.338Z,100821.25
2023-03-16T13:22:45.474Z,100827.94
2023-03-16T13:26:04.517Z,100822.19
2023-03-16T13:29:10.445Z,100825.78
2023-03-16T13:32:15.426Z,100817.56
2023-03-16T13:35:17.537Z,100822.66
2023-03-16T13:38:21.417Z,100812.75
2023-03-16T13:41:25.929Z,100797.47
2023-03-16T13:44:28.283Z,100811.72
2023-03-16T13:47:30.382Z,100818.44
2023-03-16T13:50:33.294Z,100796.28
2023-03-16T13:53:35.666Z,100817.81
2023-03-16T13:56:40.275Z,100831.56
2023-03-16T13:59:43.607Z,100835.75
2023-03-16T14:02:46.326Z,100826.84
2023-03-16T14:05:48.463Z,100823.06
2023-03-16T14:08:51.556Z,100841.81
2023-03-16T14:11:54.761Z,100838.88
2023-03-16T14:14:56.937Z,100830.88
2023-03-16T14:18:08.825Z,100835.91
2023-03-16T14:21:14.094Z,100834.84
2023-03-16T14:24:20.383Z,100836.87
2023-03-16T14:27:22.700Z,100843.47
2023-03-16T14:30:27.220Z,100843.16
2023-03-16T14:33:33.417Z,100841.50
2023-03-16T14:36:36.764Z,100846.03
2023-03-16T14:39:40.789Z,100850.72
2023-03-16T14:42:42.815Z,100845.03
2023-03-16T14:45:47.092Z,100845.03
2023-03-16T14:48:50.607Z,100847.81
2023-03-16T14:51:53.096Z,100847.81
2023-03-16T14:54:55.445Z,100857.56
2023-03-16T14:57:59.620Z,100866.38
2023-03-16T15:01:01.836Z,100863.44
2023-03-16T15:04:03.802Z,100868.09
2023-03-16T15:07:08.902Z,100868.56
2023-03-16T15:10:14.225Z,100864.03
2023-03-16T15:13:34.676Z,100860.69
2023-03-16T15:16:36.836Z,100859.75
2023-03-16T15:19:38.744Z,100856.03
2023-03-16T15:22:40.661Z,100859.72
2023-03-16T15:25:45.991Z,100867.31
2023-03-16T15:28:47.996Z,100871.56
2023-03-16T15:31:50.115Z,100874.03
2023-03-16T15:34:52.228Z,100863.13
2023-03-16T15:37:54.348Z,100873.34
2023-03-16T15:40:56.444Z,100883.88
2023-03-16T15:44:00.991Z,100874.47
2023-03-16T15:47:03.350Z,100893.38
2023-03-16T15:50:06.023Z,100896.09
2023-03-16T15:53:29.625Z,100902.41
2023-03-16T15:56:41.144Z,100897.00
2023-03-16T15:59:49.327Z,100908.19
2023-03-16T16:02:51.215Z,100901.37
2023-03-16T16:05:53.446Z,100913.03
2023-03-16T16:08:55.499Z,100911.59
2023-03-16T16:11:57.419Z,100919.44
2023-03-16T16:14:59.479Z,100921.34
2023-03-16T16:18:20.255Z,100920.72
2023-03-16T16:21:25.383Z,100927.09
2023-03-16T16:24:27.390Z,100919.94
2023-03-16T16:27:29.323Z,100938.34
2023-03-16T16:30:31.855Z,100947.84
2023-03-16T16:33:34.524Z,100944.12
2023-03-16T16:36:36.537Z,100946.78
2023-03-16T16:39:38.513Z,100949.37
2023-03-16T16:42:41.573Z,100954.28
2023-03-16T16:45:43.800Z,100958.81
2023-03-16T16:48:46.520Z,100958.59
2023-03-16T16:51:48.473Z,100958.50
2023-03-16T16:54:50.694Z,100969.37
2023-03-16T16:57:53.175Z,100976.31
2023-03-16T17:00:55.877Z,100981.12
2023-03-16T17:03:57.948Z,100980.88
2023-03-16T17:07:02.120Z,100979.69
2023-03-16T17:10:04.420Z,100993.59
2023-03-16T17:13:07.577Z,100998.69
2023-03-16T17:16:10.583Z,100999.50
2023-03-16T17:19:16.242Z,101000.25
2023-03-16T17:22:28.597Z,101003.50
2023-03-16T17:25:32.584Z,101016.41
2023-03-16T17:28:35.410Z,101005.44
2023-03-16T17:31:39.066Z,101008.56
2023-03-16T17:34:41.007Z,101015.88
2023-03-16T17:37:45.043Z,101001.25
2023-03-16T17:40:46.965Z,101027.41
2023-03-16T17:43:49.866Z,101015.97
2023-03-16T17:46:51.788Z,101022.47
2023-03-16T17:49:53.903Z,101027.25
2023-03-16T17:52:56.244Z,101021.19
2023-03-16T17:55:58.227Z,101038.06
2023-03-16T17:59:00.971Z,101032.12
2023-03-16T18:02:02.862Z,101034.00
2023-03-16T18:05:08.742Z,101040.06
2023-03-16T18:08:15.157Z,101038.31
2023-03-16T18:11:20.809Z,101040.44
2023-03-16T18:14:22.777Z,101053.25
2023-03-16T18:17:28.274Z,101039.12
2023-03-16T18:20:33.686Z,101053.91
2023-03-16T18:23:35.894Z,101055.78
2023-03-16T18:26:37.859Z,101063.87
2023-03-16T18:29:41.974Z,101057.87
2023-03-16T18:32:43.965Z,101057.44
2023-03-16T18:35:45.909Z,101065.66
2023-03-16T18:38:48.543Z,101064.63
2023-03-16T18:41:51.121Z,101080.22
2023-03-16T18:44:53.337Z,101065.22
2023-03-16T18:47:58.000Z,101062.59
2023-03-16T18:51:00.225Z,101085.13
2023-03-16T18:54:02.464Z,101097.38
2023-03-16T18:57:05.960Z,101112.09
2023-03-16T19:00:09.050Z,101125.75
2023-03-16T19:03:16.629Z,101117.84
2023-03-16T19:06:27.396Z,101141.06
2023-03-16T19:09:30.242Z,101134.63
2023-03-16T19:12:32.399Z,101135.31
2023-03-16T19:15:35.758Z,101146.81
2023-03-16T19:18:43.360Z,101137.78
2023-03-16T19:21:45.248Z,101150.62
2023-03-16T19:24:53.579Z,101162.50
2023-03-16T19:27:56.107Z,101166.31
2023-03-16T19:30:58.154Z,101165.84
2023-03-16T19:34:00.144Z,101174.00
2023-03-16T19:37:02.024Z,101175.03
2023-03-16T19:40:05.374Z,101175.56
2023-03-16T19:43:10.910Z,101188.03
2023-03-16T19:46:15.877Z,101193.91
2023-03-16T19:49:22.837Z,101188.66
2023-03-16T19:52:25.218Z,101195.06
2023-03-16T19:55:29.586Z,101203.72
2023-03-16T19:58:33.515Z,101191.12
2023-03-16T20:01:35.857Z,101200.94
2023-03-16T20:04:38.230Z,101203.75
2023-03-16T20:07:40.206Z,101219.59
2023-03-16T20:10:42.062Z,101213.31
2023-03-16T20:13:44.585Z,101215.84
2023-03-16T20:16:48.216Z,101217.28
2023-03-16T20:19:50.589Z,101220.91
2023-03-16T20:22:53.857Z,101225.28
2023-03-16T20:25:57.087Z,101209.00
2023-03-16T20:28:59.707Z,101223.06
2023-03-16T20:32:01.822Z,101241.47
2023-03-16T20:35:03.823Z,101237.53
2023-03-16T20:38:09.222Z,101243.56
2023-03-16T20:41:16.425Z,101235.91
2023-03-16T20:44:18.979Z,101243.28
2023-03-16T20:47:22.824Z,101239.44
2023-03-16T20:50:28.718Z,101238.00
2023-03-16T20:53:30.661Z,101246.81
2023-03-16T20:56:32.497Z,101241.75
2023-03-16T20:59:34.628Z,101247.72
2023-03-16T21:02:37.287Z,101244.94
2023-03-16T21:05:40.331Z,101248.78
2023-03-16T21:08:42.146Z,101245.09
2023-03-16T21:11:44.128Z,101242.47
2023-03-16T21:14:46.302Z,101236.91
2023-03-16T21:17:48.191Z,101254.44
2023-03-16T21:20:50.288Z,101254.97
2023-03-16T21:23:52.192Z,101256.44
2023-03-16T21:26:54.338Z,101260.72
2023-03-16T21:29:56.995Z,101265.84
2023-03-16T21:33:01.869Z,101268.22
2023-03-16T21:36:04.721Z,101282.66
2023-03-16T21:39:09.325Z,101276.47
2023-03-16T21:42:12.021Z,101278.28
2023-03-16T21:45:14.210Z,101278.63
2023-03-16T21:48:26.976Z,101278.66
2023-03-16T21:51:31.331Z,101281.25
2023-03-16T21:54:33.266Z,101269.16
2023-03-16T21:57:35.151Z,101275.50
2023-03-16T22:00:37.063Z,101273.28
2023-03-16T22:03:50.490Z,101272.28
2023-03-16T22:06:52.946Z,101274.53
2023-03-16T22:09:54.920Z,101279.12
2023-03-16T22:12:56.799Z,101287.47
2023-03-16T22:15:58.744Z,101283.47
2023-03-16T22:19:00.656Z,101287.44
2023-03-16T22:22:02.609Z,101283.50
2023-03-16T22:25:09.754Z,101282.09
2023-03-16T22:28:12.619Z,101288.13
2023-03-16T22:31:16.531Z,101287.84
2023-03-16T22:34:26.097Z,101285.84
2023-03-16T22:37:28.139Z,101292.47
2023-03-16T22:40:32.468Z,101286.09
2023-03-16T22:43:35.055Z,101286.41
2023-03-16T22:46:36.857Z,101290.03
2023-03-16T22:49:54.242Z,101277.81
2023-03-16T22:52:57.971Z,101293.03
2023-03-16T22:55:59.852Z,101303.31
2023-03-16T22:59:02.563Z,101302.63
2023-03-16T23:02:04.454Z,101299.13
2023-03-16T23:05:20.759Z,101297.75
2023-03-16T23:08:23.492Z,101299.56
2023-03-16T23:11:27.317Z,101296.56
2023-03-16T23:14:31.481Z,101282.50
2023-03-16T23:17:33.376Z,101309.62
2023-03-16T23:20:35.206Z,101308.19
2023-03-16T23:23:37.142Z,101314.72
2023-03-16T23:26:39.009Z,101321.09
2023-03-16T23:29:41.199Z,101303.12
2023-03-16T23:32:43.498Z,101312.81
2023-03-16T23:35:46.862Z,101307.59
2023-03-16T23:38:49.364Z,101313.28
2023-03-16T23:41:52.364Z,101315.44
2023-03-16T23:44:54.281Z,101315.63
2023-03-16T23:47:57.384Z,101321.97
2023-03-16T23:50:59.757Z,101321.34
2023-03-16T23:54:01.747Z,101327.91
2023-03-16T23:57:03.682Z,101324.31
